createdAt,value
2018-04-02T00:01:12.667Z,6.30
2018-04-02T00:03:40.715Z,6.30
2018-04-02T00:06:11.879Z,6.30
2018-04-02T00:08:39.931Z,6.30
2018-04-02T00:11:07.970Z,6.30
2018-04-02T00:13:36.771Z,6.20
2018-04-02T00:16:04.829Z,6.20
2018-04-02T00:18:32.879Z,6.10
2018-04-02T00:21:00.935Z,6.10
2018-04-02T00:23:28.995Z,6.00
2018-04-02T00:25:57.067Z,6.00
2018-04-02T00:28:25.115Z,6.00
2018-04-02T00:30:53.171Z,6.10
2018-04-02T00:33:21.224Z,6.10
2018-04-02T00:35:50.029Z,6.10
2018-04-02T00:38:18.079Z,6.10
2018-04-02T00:40:46.124Z,6.00
2018-04-02T00:43:14.159Z,6.00
2018-04-02T00:45:42.234Z,6.00
2018-04-02T00:48:10.302Z,6.00
2018-04-02T00:50:38.316Z,6.00
2018-04-02T00:53:06.371Z,6.00
2018-04-02T00:55:34.421Z,6.10
2018-04-02T00:58:03.560Z,6.20
2018-04-02T01:00:31.619Z,6.20
2018-04-02T01:02:59.651Z,6.30
2018-04-02T01:05:27.688Z,6.30
2018-04-02T01:07:56.499Z,6.40
2018-04-02T01:10:24.538Z,6.40
2018-04-02T01:12:52.587Z,6.40
2018-04-02T01:15:20.637Z,6.40
2018-04-02T01:17:48.676Z,6.40
2018-04-02T01:20:17.480Z,6.40
2018-04-02T01:22:45.527Z,6.40
2018-04-02T01:25:13.580Z,6.40
2018-04-02T01:27:41.620Z,6.40
2018-04-02T01:30:09.680Z,6.30
2018-04-02T01:32:40.878Z,6.20
2018-04-02T01:35:08.919Z,6.20
2018-04-02T01:37:36.995Z,6.20
2018-04-02T01:40:05.031Z,6.20
2018-04-02T01:42:33.072Z,6.30
2018-04-02T01:45:01.895Z,6.40
2018-04-02T01:47:29.931Z,6.40
2018-04-02T01:49:58.735Z,6.40
2018-04-02T01:52:26.801Z,6.40
2018-04-02T01:54:54.839Z,6.40
2018-04-02T01:57:22.912Z,6.40
2018-04-02T01:59:50.931Z,6.40
2018-04-02T02:02:18.983Z,6.40
2018-04-02T02:04:47.023Z,6.50
2018-04-02T02:07:15.067Z,6.50
2018-04-02T02:09:44.162Z,6.50
2018-04-02T02:12:12.188Z,6.50
2018-04-02T02:14:40.236Z,6.50
2018-04-02T02:17:13.244Z,6.50
2018-04-02T02:19:41.304Z,6.50
2018-04-02T02:22:09.352Z,6.40
2018-04-02T02:24:37.392Z,6.40
2018-04-02T02:27:05.526Z,6.40
2018-04-02T02:29:33.567Z,6.40
2018-04-02T02:32:01.616Z,6.40
2018-04-02T02:34:29.804Z,6.40
2018-04-02T02:36:57.847Z,6.40
2018-04-02T02:39:25.880Z,6.40
2018-04-02T02:41:53.940Z,6.40
2018-04-02T02:44:21.975Z,6.40
2018-04-02T02:46:50.016Z,6.40
2018-04-02T02:49:18.831Z,6.40
2018-04-02T02:51:46.873Z,6.40
2018-04-02T02:54:14.915Z,6.50
2018-04-02T02:56:43.008Z,6.50
2018-04-02T02:59:11.064Z,6.50
2018-04-02T03:01:39.106Z,6.50
2018-04-02T03:04:07.168Z,6.50
2018-04-02T03:06:35.204Z,6.60
2018-04-02T03:09:04.009Z,6.60
2018-04-02T03:11:32.822Z,6.60
2018-04-02T03:14:00.855Z,6.60
2018-04-02T03:16:28.907Z,6.60
2018-04-02T03:18:56.973Z,6.60
2018-04-02T03:21:25.016Z,6.60
2018-04-02T03:23:53.062Z,6.60
2018-04-02T03:26:21.103Z,6.60
2018-04-02T03:28:49.135Z,6.50
2018-04-02T03:31:17.190Z,6.50
2018-04-02T03:33:47.151Z,6.50
2018-04-02T03:36:15.187Z,6.50
2018-04-02T03:38:43.265Z,6.50
2018-04-02T03:41:11.291Z,6.50
2018-04-02T03:43:40.095Z,6.50
2018-04-02T03:46:08.175Z,6.50
2018-04-02T03:48:36.216Z,6.50
2018-04-02T03:51:05.032Z,6.50
2018-04-02T03:53:33.083Z,6.40
2018-04-02T03:56:01.126Z,6.40
2018-04-02T03:58:29.179Z,6.40
2018-04-02T04:00:57.224Z,6.40
2018-04-02T04:03:25.259Z,6.30
2018-04-02T04:05:53.318Z,6.30
2018-04-02T04:08:21.360Z,6.30
2018-04-02T04:10:49.391Z,6.20
2018-04-02T04:13:21.231Z,6.20
2018-04-02T04:15:49.271Z,6.20
2018-04-02T04:18:17.319Z,6.20
2018-04-02T04:20:45.384Z,6.20
2018-04-02T04:23:13.438Z,6.20
2018-04-02T04:25:42.243Z,6.20
2018-04-02T04:28:10.288Z,6.20
2018-04-02T04:30:38.316Z,6.20
2018-04-02T04:33:06.356Z,6.20
2018-04-02T04:35:34.404Z,6.30
2018-04-02T04:38:03.211Z,6.20
2018-04-02T04:40:31.286Z,6.20
2018-04-02T04:42:59.316Z,6.30
2018-04-02T04:45:27.361Z,6.20
2018-04-02T04:47:55.396Z,6.20
2018-04-02T04:50:23.467Z,6.20
2018-04-02T04:52:51.515Z,6.20
2018-04-02T04:55:19.554Z,6.20
2018-04-02T04:57:47.608Z,6.20
2018-04-02T05:00:15.660Z,6.20
2018-04-02T05:02:43.696Z,6.20
2018-04-02T05:05:11.753Z,6.20
2018-04-02T05:07:39.794Z,6.20
2018-04-02T05:10:07.836Z,6.20
2018-04-02T05:12:36.672Z,6.20
2018-04-02T05:15:04.707Z,6.20
2018-04-02T05:17:32.776Z,6.20
2018-04-02T05:20:00.808Z,6.20
2018-04-02T05:22:28.860Z,6.20
2018-04-02T05:24:56.913Z,6.20
2018-04-02T05:27:24.959Z,6.20
2018-04-02T05:29:53.033Z,6.30
2018-04-02T05:32:21.075Z,6.20
2018-04-02T05:34:49.114Z,6.20
2018-04-02T05:37:17.215Z,6.30
2018-04-02T05:39:45.277Z,6.30
2018-04-02T05:42:13.287Z,6.40
2018-04-02T05:44:42.107Z,6.40
2018-04-02T05:47:10.144Z,6.40
2018-04-02T05:49:38.965Z,6.40
2018-04-02T05:52:07.171Z,6.40
2018-04-02T05:54:35.224Z,6.40
2018-04-02T05:57:03.272Z,6.40
2018-04-02T05:59:31.323Z,6.40
2018-04-02T06:02:00.123Z,6.20
2018-04-02T06:04:28.162Z,6.20
2018-04-02T06:06:56.215Z,6.20
2018-04-02T06:09:24.260Z,6.20
2018-04-02T06:11:52.299Z,6.10
2018-04-02T06:14:21.131Z,6.10
2018-04-02T06:16:49.175Z,6.00
2018-04-02T06:19:17.220Z,6.00
2018-04-02T06:21:45.269Z,6.00
2018-04-02T06:24:13.325Z,6.10
2018-04-02T06:26:41.383Z,6.10
2018-04-02T06:29:09.447Z,6.20
2018-04-02T06:31:37.521Z,6.20
2018-04-02T06:34:06.300Z,6.20
2018-04-02T06:36:34.384Z,6.20
2018-04-02T06:39:02.424Z,6.20
2018-04-02T06:41:30.490Z,6.30
2018-04-02T06:43:58.523Z,6.30
2018-04-02T06:46:26.567Z,6.40
2018-04-02T06:48:54.627Z,6.40
2018-04-02T06:51:27.663Z,6.50
2018-04-02T06:53:55.712Z,6.50
2018-04-02T06:56:23.759Z,6.50
2018-04-02T06:58:51.799Z,6.60
2018-04-02T07:01:19.847Z,6.70
2018-04-02T07:03:47.895Z,6.70
2018-04-02T07:06:15.934Z,6.70
2018-04-02T07:08:43.985Z,6.70
2018-04-02T07:11:12.040Z,6.80
2018-04-02T07:13:40.087Z,6.80
2018-04-02T07:16:08.128Z,6.90
2018-04-02T07:18:36.176Z,6.90
2018-04-02T07:21:04.235Z,7.00
2018-04-02T07:23:32.282Z,7.10
2018-04-02T07:26:00.323Z,7.20
2018-04-02T07:28:28.375Z,7.30
2018-04-02T07:30:56.431Z,7.40
2018-04-02T07:33:25.261Z,7.60
2018-04-02T07:35:53.323Z,7.60
2018-04-02T07:38:21.360Z,7.60
2018-04-02T07:40:49.408Z,7.60
2018-04-02T07:43:17.796Z,7.70
2018-04-02T07:45:45.858Z,7.80
2018-04-02T07:48:13.901Z,7.90
2018-04-02T07:50:42.058Z,8.10
2018-04-02T07:53:10.083Z,8.30
2018-04-02T07:55:38.155Z,8.40
2018-04-02T07:58:06.216Z,8.50
2018-04-02T08:00:34.264Z,8.50
2018-04-02T08:03:03.299Z,8.60
2018-04-02T08:05:31.355Z,8.60
2018-04-02T08:08:00.347Z,8.50
2018-04-02T08:10:28.387Z,8.50
2018-04-02T08:12:56.439Z,8.50
2018-04-02T08:15:24.487Z,8.50
2018-04-02T08:17:52.529Z,8.50
2018-04-02T08:20:21.659Z,8.60
2018-04-02T08:22:49.770Z,8.50
2018-04-02T08:25:17.766Z,8.50
2018-04-02T08:27:45.821Z,8.50
2018-04-02T08:30:13.864Z,8.60
2018-04-02T08:32:42.684Z,8.60
2018-04-02T08:35:11.936Z,8.60
2018-04-02T08:37:40.003Z,8.60
2018-04-02T08:40:08.040Z,8.70
2018-04-02T08:42:36.101Z,8.70
2018-04-02T08:45:09.116Z,8.70
2018-04-02T08:47:37.166Z,8.80
2018-04-02T08:50:05.216Z,8.90
2018-04-02T08:52:33.323Z,8.90
2018-04-02T08:55:01.380Z,9.00
2018-04-02T08:57:29.415Z,9.10
2018-04-02T08:59:58.244Z,9.30
2018-04-02T09:02:26.315Z,9.30
2018-04-02T09:05:00.204Z,9.40
2018-04-02T09:07:32.228Z,9.50
2018-04-02T09:10:00.259Z,9.60
2018-04-02T09:12:28.348Z,9.60
2018-04-02T09:14:56.407Z,9.70
2018-04-02T09:17:24.480Z,9.70
2018-04-02T09:19:52.520Z,9.80
2018-04-02T09:22:22.979Z,9.90
2018-04-02T09:24:51.038Z,10.00
2018-04-02T09:27:19.080Z,10.10
2018-04-02T09:29:47.130Z,10.20
2018-04-02T09:32:15.175Z,10.30
2018-04-02T09:34:43.233Z,10.40
2018-04-02T09:37:11.293Z,10.50
2018-04-02T09:39:39.339Z,10.50
2018-04-02T09:42:09.216Z,10.60
2018-04-02T09:44:37.406Z,10.60
2018-04-02T09:47:05.452Z,10.60
2018-04-02T09:49:33.499Z,10.60
2018-04-02T09:52:01.583Z,10.70
2018-04-02T09:54:29.619Z,10.80
2018-04-02T09:56:58.424Z,11.00
2018-04-02T09:59:26.493Z,11.00
2018-04-02T10:01:55.440Z,11.10
2018-04-02T10:04:29.068Z,11.30
2018-04-02T10:07:00.071Z,11.40
2018-04-02T10:09:28.139Z,11.60
2018-04-02T10:11:56.232Z,11.70
2018-04-02T10:14:29.212Z,11.70
2018-04-02T10:16:59.427Z,11.80
2018-04-02T10:19:27.472Z,11.80
2018-04-02T10:21:55.523Z,11.90
2018-04-02T10:24:23.552Z,11.90
2018-04-02T10:26:52.639Z,11.90
2018-04-02T10:29:20.700Z,11.90
2018-04-02T10:31:48.742Z,11.90
2018-04-02T10:34:16.778Z,11.90
2018-04-02T10:36:46.836Z,11.80
2018-04-02T10:39:14.900Z,11.80
2018-04-02T10:41:42.934Z,11.80
2018-04-02T10:44:19.880Z,11.80
2018-04-02T10:46:47.927Z,11.90
2018-04-02T10:49:15.964Z,12.00
2018-04-02T10:51:44.003Z,12.10
2018-04-02T10:54:12.048Z,12.20
2018-04-02T10:56:40.095Z,12.30
2018-04-02T10:59:08.146Z,12.30
2018-04-02T11:01:36.187Z,12.40
2018-04-02T11:04:04.990Z,12.50
2018-04-02T11:06:36.851Z,12.50
2018-04-02T11:09:04.912Z,12.60
2018-04-02T11:11:32.955Z,12.60
2018-04-02T11:14:00.996Z,12.80
2018-04-02T11:16:29.851Z,13.00
2018-04-02T11:18:58.658Z,13.00
2018-04-02T11:21:26.688Z,13.00
2018-04-02T11:23:55.815Z,13.00
2018-04-02T11:26:23.851Z,13.00
2018-04-02T11:28:51.919Z,13.00
2018-04-02T11:31:19.978Z,13.00
2018-04-02T11:33:48.021Z,13.10
2018-04-02T11:36:16.828Z,13.30
2018-04-02T11:38:44.892Z,13.20
2018-04-02T11:41:12.931Z,13.30
2018-04-02T11:43:40.972Z,13.30
2018-04-02T11:46:09.029Z,13.40
2018-04-02T11:48:37.063Z,13.40
2018-04-02T11:51:05.099Z,13.40
2018-04-02T11:53:33.138Z,13.40
2018-04-02T11:56:01.178Z,13.40
2018-04-02T11:58:29.244Z,13.50
2018-04-02T12:00:57.303Z,13.40
2018-04-02T12:03:25.338Z,13.40
2018-04-02T12:05:53.375Z,13.40
2018-04-02T12:08:21.419Z,13.50
2018-04-02T12:10:49.458Z,13.60
2018-04-02T12:13:19.398Z,13.70
2018-04-02T12:15:47.439Z,13.80
2018-04-02T12:18:15.476Z,13.90
2018-04-02T12:20:44.275Z,14.10
2018-04-02T12:23:12.315Z,14.10
2018-04-02T12:25:40.351Z,14.10
2018-04-02T12:28:08.397Z,14.10
2018-04-02T12:30:36.451Z,14.10
2018-04-02T12:33:05.310Z,14.00
2018-04-02T12:35:33.400Z,14.00
2018-04-02T12:38:01.478Z,14.00
2018-04-02T12:40:29.520Z,14.10
2018-04-02T12:42:57.568Z,14.10
2018-04-02T12:45:25.632Z,14.10
2018-04-02T12:47:53.663Z,14.10
2018-04-02T12:50:21.705Z,14.20
2018-04-02T12:52:49.756Z,14.40
2018-04-02T12:55:17.836Z,14.40
2018-04-02T12:57:45.868Z,14.40
2018-04-02T13:00:17.756Z,14.50
2018-04-02T13:02:45.795Z,14.40
2018-04-02T13:05:13.827Z,14.50
2018-04-02T13:07:41.879Z,14.60
2018-04-02T13:10:09.936Z,14.70
2018-04-02T13:12:37.967Z,14.70
2018-04-02T13:15:06.027Z,14.70
2018-04-02T13:17:34.187Z,14.70
2018-04-02T13:20:02.226Z,14.80
2018-04-02T13:22:30.279Z,14.80
2018-04-02T13:24:58.315Z,14.80
2018-04-02T13:27:26.357Z,14.70
2018-04-02T13:29:54.408Z,14.70
2018-04-02T13:32:22.617Z,14.80
2018-04-02T13:34:50.651Z,14.80
2018-04-02T13:37:18.690Z,14.90
2018-04-02T13:39:46.815Z,15.00
2018-04-02T13:42:14.851Z,15.00
2018-04-02T13:44:43.686Z,15.10
2018-04-02T13:47:11.735Z,15.10
2018-04-02T13:49:39.772Z,15.20
2018-04-02T13:52:08.592Z,15.00
2018-04-02T13:54:36.638Z,14.90
2018-04-02T13:57:04.708Z,14.90
2018-04-02T13:59:34.802Z,15.00
2018-04-02T14:02:02.838Z,15.10
2018-04-02T14:04:30.894Z,15.10
2018-04-02T14:06:59.728Z,15.10
2018-04-02T14:09:27.775Z,15.10
2018-04-02T14:11:55.807Z,15.00
2018-04-02T14:14:23.863Z,15.00
2018-04-02T14:16:51.898Z,15.00
2018-04-02T14:19:19.956Z,15.00
2018-04-02T14:21:47.987Z,15.00
2018-04-02T14:24:16.023Z,15.00
2018-04-02T14:26:44.057Z,15.00
2018-04-02T14:29:12.090Z,15.00
2018-04-02T14:31:40.131Z,15.10
2018-04-02T14:34:08.927Z,15.30
2018-04-02T14:36:36.977Z,15.30
2018-04-02T14:39:05.022Z,15.30
2018-04-02T14:41:33.075Z,15.40
2018-04-02T14:44:01.134Z,15.40
2018-04-02T14:46:29.171Z,15.30
2018-04-02T14:48:57.207Z,15.40
2018-04-02T14:51:25.274Z,15.30
2018-04-02T14:53:53.307Z,15.30
2018-04-02T14:56:21.348Z,15.30
2018-04-02T14:58:49.471Z,15.30
2018-04-02T15:01:17.512Z,15.30
2018-04-02T15:03:45.571Z,15.30
2018-04-02T15:06:13.665Z,15.30
2018-04-02T15:08:41.638Z,15.30
2018-04-02T15:11:09.691Z,15.40
2018-04-02T15:13:37.735Z,15.40
2018-04-02T15:16:05.770Z,15.30
2018-04-02T15:18:33.839Z,15.30
2018-04-02T15:21:01.885Z,15.20
2018-04-02T15:23:29.919Z,15.20
2018-04-02T15:25:57.968Z,15.10
2018-04-02T15:28:26.008Z,15.10
2018-04-02T15:30:54.063Z,15.10
2018-04-02T15:33:22.107Z,15.10
2018-04-02T15:35:50.150Z,15.10
2018-04-02T15:38:18.179Z,15.00
2018-04-02T15:40:46.239Z,15.10
2018-04-02T15:43:14.279Z,15.10
2018-04-02T15:45:43.080Z,15.30
2018-04-02T15:48:11.208Z,15.30
2018-04-02T15:50:39.252Z,15.40
2018-04-02T15:53:07.283Z,15.40
2018-04-02T15:55:36.107Z,15.30
2018-04-02T15:58:04.140Z,15.30
2018-04-02T16:00:32.967Z,15.10
2018-04-02T16:03:01.000Z,15.10
2018-04-02T16:05:29.031Z,15.00
2018-04-02T16:07:57.066Z,14.90
2018-04-02T16:10:26.011Z,14.70
2018-04-02T16:12:54.048Z,14.70
2018-04-02T16:15:22.084Z,14.60
2018-04-02T16:17:50.895Z,14.50
2018-04-02T16:20:18.936Z,14.40
2018-04-02T16:22:46.966Z,14.40
2018-04-02T16:25:15.019Z,14.40
2018-04-02T16:27:43.052Z,14.30
2018-04-02T16:30:11.846Z,14.10
2018-04-02T16:32:40.664Z,14.00
2018-04-02T16:35:09.528Z,14.10
2018-04-02T16:37:38.389Z,13.90
2018-04-02T16:40:06.454Z,14.00
2018-04-02T16:42:34.557Z,14.00
2018-04-02T16:45:02.566Z,13.90
2018-04-02T16:47:30.643Z,13.90
2018-04-02T16:49:58.691Z,13.80
2018-04-02T16:52:26.731Z,13.80
2018-04-02T16:54:54.779Z,13.80
2018-04-02T16:57:22.847Z,13.80
2018-04-02T16:59:52.076Z,13.80
2018-04-02T17:02:20.124Z,13.80
2018-04-02T17:04:48.163Z,13.70
2018-04-02T17:07:16.191Z,13.70
2018-04-02T17:09:45.013Z,13.60
2018-04-02T17:12:13.047Z,13.60
2018-04-02T17:14:41.079Z,13.60
2018-04-02T17:17:09.144Z,13.60
2018-04-02T17:19:37.175Z,13.60
2018-04-02T17:22:05.983Z,13.60
2018-04-02T17:24:34.024Z,13.60
2018-04-02T17:27:02.059Z,13.50
2018-04-02T17:29:30.100Z,13.50
2018-04-02T17:31:58.147Z,13.50
2018-04-02T17:34:26.951Z,13.40
2018-04-02T17:36:54.995Z,13.40
2018-04-02T17:39:23.055Z,13.40
2018-04-02T17:41:51.097Z,13.40
2018-04-02T17:44:19.131Z,13.30
2018-04-02T17:46:47.959Z,13.20
2018-04-02T17:49:15.983Z,13.20
2018-04-02T17:51:44.787Z,13.20
2018-04-02T17:54:12.839Z,13.20
2018-04-02T17:56:40.878Z,13.20
2018-04-02T17:59:08.918Z,13.10
2018-04-02T18:01:37.135Z,13.10
2018-04-02T18:04:05.303Z,13.00
2018-04-02T18:06:33.340Z,13.00
2018-04-02T18:09:01.405Z,13.00
2018-04-02T18:11:30.195Z,13.00
2018-04-02T18:13:58.291Z,13.00
2018-04-02T18:16:26.279Z,13.00
2018-04-02T18:18:54.317Z,12.90
2018-04-02T18:21:23.348Z,12.90
2018-04-02T18:23:51.519Z,12.90
2018-04-02T18:26:19.561Z,12.90
2018-04-02T18:28:47.599Z,12.90
2018-04-02T18:31:15.659Z,12.90
2018-04-02T18:33:43.699Z,12.90
2018-04-02T18:36:11.735Z,12.90
2018-04-02T18:38:39.771Z,12.80
2018-04-02T18:41:07.937Z,12.90
2018-04-02T18:43:35.965Z,12.80
2018-04-02T18:46:04.784Z,12.80
2018-04-02T18:48:33.583Z,12.80
2018-04-02T18:51:01.627Z,12.80
2018-04-02T18:53:29.848Z,12.80
2018-04-02T18:55:57.883Z,12.70
2018-04-02T18:58:25.919Z,12.70
2018-04-02T19:00:53.967Z,12.70
2018-04-02T19:03:22.775Z,12.70
2018-04-02T19:05:50.811Z,12.70
2018-04-02T19:08:18.863Z,12.60
2018-04-02T19:10:46.899Z,12.70
2018-04-02T19:13:14.931Z,12.70
2018-04-02T19:15:43.002Z,12.70
2018-04-02T19:18:11.044Z,12.70
2018-04-02T19:20:39.095Z,12.60
2018-04-02T19:23:07.150Z,12.60
2018-04-02T19:25:35.183Z,12.60
2018-04-02T19:28:03.231Z,12.60
2018-04-02T19:30:32.167Z,12.60
2018-04-02T19:33:00.983Z,12.60
2018-04-02T19:35:29.015Z,12.60
2018-04-02T19:37:57.067Z,12.60
2018-04-02T19:40:25.111Z,12.60
2018-04-02T19:42:53.146Z,12.60
2018-04-02T19:45:21.205Z,12.60
2018-04-02T19:47:49.243Z,12.60
2018-04-02T19:50:17.303Z,12.60
2018-04-02T19:52:45.358Z,12.60
2018-04-02T19:55:13.384Z,12.60
2018-04-02T19:57:41.424Z,12.60
2018-04-02T20:00:09.470Z,12.60
2018-04-02T20:02:37.511Z,12.60
2018-04-02T20:05:11.611Z,12.60
2018-04-02T20:07:39.643Z,12.60
2018-04-02T20:10:07.687Z,12.60
2018-04-02T20:12:35.736Z,12.50
2018-04-02T20:15:04.543Z,12.50
2018-04-02T20:17:32.587Z,12.50
2018-04-02T20:20:00.639Z,12.60
2018-04-02T20:22:28.676Z,12.50
2018-04-02T20:24:56.712Z,12.50
2018-04-02T20:27:24.768Z,12.50
2018-04-02T20:29:52.803Z,12.50
2018-04-02T20:32:20.836Z,12.50
2018-04-02T20:34:48.892Z,12.50
2018-04-02T20:37:16.927Z,12.40
2018-04-02T20:39:44.995Z,12.40
2018-04-02T20:42:13.043Z,12.40
2018-04-02T20:44:41.083Z,12.40
2018-04-02T20:47:09.115Z,12.40
2018-04-02T20:49:37.168Z,12.50
2018-04-02T20:52:05.207Z,12.40
2018-04-02T20:54:34.756Z,12.50
2018-04-02T20:57:02.836Z,12.40
2018-04-02T20:59:30.884Z,12.40
2018-04-02T21:01:58.914Z,12.40
2018-04-02T21:04:26.964Z,12.40
2018-04-02T21:06:54.999Z,12.40
2018-04-02T21:09:23.031Z,12.40
2018-04-02T21:11:56.703Z,12.30
2018-04-02T21:14:24.757Z,12.30
2018-04-02T21:16:52.783Z,12.30
2018-04-02T21:19:21.600Z,12.30
2018-04-02T21:24:24.079Z,12.20
2018-04-02T21:26:52.116Z,12.10
2018-04-02T21:29:20.152Z,12.10
2018-04-02T21:31:48.211Z,12.10
2018-04-02T21:34:16.243Z,12.00
2018-04-02T21:36:44.284Z,12.00
2018-04-02T21:39:12.355Z,12.00
2018-04-02T21:41:41.462Z,12.00
2018-04-02T21:44:09.491Z,12.00
2018-04-02T21:46:37.553Z,12.00
2018-04-02T21:49:06.347Z,12.00
2018-04-02T21:51:34.380Z,12.00
2018-04-02T21:54:02.448Z,12.00
2018-04-02T21:56:30.480Z,12.00
2018-04-02T21:58:59.508Z,12.00
2018-04-02T22:01:27.552Z,12.00
2018-04-02T22:03:55.587Z,12.00
2018-04-02T22:06:36.342Z,12.00
2018-04-02T22:09:05.332Z,12.00
2018-04-02T22:11:33.320Z,12.00
2018-04-02T22:14:03.315Z,12.00
2018-04-02T22:16:31.356Z,12.00
2018-04-02T22:18:59.391Z,12.00
2018-04-02T22:21:27.469Z,12.10
2018-04-02T22:23:55.510Z,12.00
2018-04-02T22:26:23.548Z,12.00
2018-04-02T22:28:51.602Z,12.10
2018-04-02T22:31:19.635Z,12.10
2018-04-02T22:33:47.676Z,12.10
2018-04-02T22:36:15.731Z,12.10
2018-04-02T22:38:44.531Z,12.20
2018-04-02T22:41:12.568Z,12.10
2018-04-02T22:43:41.715Z,12.20
2018-04-02T22:46:09.743Z,12.20
2018-04-02T22:48:37.775Z,12.20
2018-04-02T22:51:06.600Z,12.20
2018-04-02T22:53:34.639Z,12.20
2018-04-02T22:56:02.691Z,12.20
2018-04-02T22:58:30.723Z,12.20
2018-04-02T23:00:58.759Z,12.30
2018-04-02T23:03:28.735Z,12.20
2018-04-02T23:05:56.854Z,12.20
2018-04-02T23:08:24.884Z,12.20
2018-04-02T23:10:52.915Z,12.20
2018-04-02T23:13:20.963Z,12.20
2018-04-02T23:15:49.782Z,12.20
2018-04-02T23:18:17.815Z,12.20
2018-04-02T23:20:45.868Z,12.20
2018-04-02T23:23:13.902Z,12.20
2018-04-02T23:25:41.932Z,12.20
2018-04-02T23:28:10.753Z,12.20
2018-04-02T23:30:38.783Z,12.20
2018-04-02T23:33:06.815Z,12.20
2018-04-02T23:35:34.879Z,12.20
2018-04-02T23:38:02.899Z,12.20
2018-04-02T23:40:32.887Z,12.20
2018-04-02T23:43:00.925Z,12.20
2018-04-02T23:45:28.958Z,12.10
2018-04-02T23:47:57.761Z,12.10
2018-04-02T23:50:25.822Z,12.10
2018-04-02T23:52:53.868Z,12.10
2018-04-02T23:55:21.908Z,12.10
2018-04-02T23:57:51.860Z,12.10
